Albany, Georgia
Current Conditions -  °F | °C
As of 10:53 PM on Wednesday 26 Nov 2014 (Local Time) from KABY Reporting Station
Clear Clear  
Wind Chill: 42°   Ceiling: Unl
Heat Index: 44°   Visibility: 10mi
Dew Point: 36°   Wind: 5mph
Humidity: 73%   Direction: 220°SW
Pressure: 30.2"   Gusts: NA
Location:  31.58°N, 84.15°W
Report Text: KABY 270353Z 22004KT 10SM CLR 07/02 A3020 RMK AO2 SLP227 T00670022 $
Loading
Personal Weather Stations






























Interactive Weather Map New forecast layout! Learn more

10-Day Weather Forecast

Advertisements
Track Severe Weather on mobile